St Joseph — WDC2814 — position and weather

sailwx.info

Track history (hours):
 
Tides and Currents Weather Stations Pressure Air Temp Water Temp Dewpoint Dewpoint Depression Visibility Wind Speed Wind Dir Waves Ship Positions

St Joseph

Owner: Marquette Transportation Company Gulf-Inland, LLC, Jefferson, LA. More information available from US FCC via Universal Licensing System and Coast Guard Vessel Documentation Center.

Last reported at 2017-Dec-10 23:02 UTC. Time now 2017-Dec-13 03:24 UTC.
Position N 29°51' W 091°55'.

Length 22 m; draft 2.9 m.

Type: Tug. MMSI: 366998040.

Date/timePositionNaut miles runAvg speedWind from/ knotsBaromVisibWave heightAir tempDewpointWater temp
2017-Dec-10 23:02N 29°51' W 091°55'1 5.8
2017-Dec-10 22:55N 29°51' W 091°55'2 5.6
2017-Dec-10 22:30N 29°50' W 091°58'3 5.9
2017-Dec-10 22:00N 29°49' W 092°01'3 5.8
2017-Dec-10 21:30N 29°48' W 092°04'3 5.9
2017-Dec-10 21:00N 29°47' W 092°07'3 5.8
2017-Dec-10 20:30N 29°47' W 092°11'3 6.2
2017-Dec-10 20:00N 29°48' W 092°14'3 5.9
2017-Dec-10 19:30N 29°49' W 092°17'3 5.3
2017-Dec-10 19:00N 29°50' W 092°20'21 5.7
2017-Dec-10 15:23N 29°57' W 092°42'13 5.7
2017-Dec-10 13:06N 29°56' W 092°57'1 4.8
2017-Dec-10 12:58N 29°56' W 092°58'3 3.8
2017-Dec-10 12:11N 29°56' W 093°01'1 5.2
2017-Dec-10 12:00N 29°56' W 093°02'3 5.3
2017-Dec-10 11:30N 29°56' W 093°06'3 5.5
2017-Dec-10 11:00N 29°56' W 093°09'3 5.2
2017-Dec-10 10:30N 29°58' W 093°11'3 5.8
2017-Dec-10 10:00N 29°60' W 093°13'3 5.1
2017-Dec-10 09:30N 30°02' W 093°15'3 5.1
2017-Dec-10 09:00N 30°04' W 093°16'2 4.9
2017-Dec-10 08:30N 30°06' W 093°18'0 0.0
2017-Dec-10 07:58N 30°06' W 093°18'0 0.1
2017-Dec-10 07:28N 30°06' W 093°18'0 0.0
2017-Dec-10 06:58N 30°06' W 093°18'2 4.8
2017-Dec-10 06:30N 30°05' W 093°20'2 3.7
2017-Dec-10 06:01N 30°04' W 093°22'2 4.1
2017-Dec-10 05:30N 30°04' W 093°24'2 4.5
2017-Dec-10 05:01N 30°04' W 093°27'2 4.5
2017-Dec-10 04:31N 30°04' W 093°30'2 4.6
2017-Dec-10 04:01N 30°04' W 093°32'3 5.0
2017-Dec-10 03:30N 30°04' W 093°35'3 5.6
2017-Dec-10 03:00N 30°04' W 093°38'3 5.3
2017-Dec-10 02:30N 30°04' W 093°41'71 5.3
2017-Dec-09 13:05N 29°24' W 094°49'1 7.7
2017-Dec-09 12:59N 29°24' W 094°49'6 7.4
2017-Dec-09 12:13N 29°30' W 094°52'2 7.2
2017-Dec-09 12:00N 29°31' W 094°53'4 7.5
2017-Dec-09 11:31N 29°34' W 094°55'4 7.3
2017-Dec-09 11:00N 29°37' W 094°57'4 7.5
2017-Dec-09 10:31N 29°41' W 094°59'3 6.6
2017-Dec-09 10:01N 29°43' W 095°01'3 5.9
2017-Dec-09 09:30N 29°45' W 095°04'2 2.4
2017-Dec-09 08:46N 29°45' W 095°06'0 0.9
2017-Dec-09 08:30N 29°46' W 095°06'0 0.4
2017-Dec-09 07:57N 29°45' W 095°06'1 0.0
2017-Dec-08 12:44N 29°46' W 095°05'1 0.1
2017-Dec-08 02:22N 29°46' W 095°06'1 0.3
2017-Dec-07 22:18N 29°46' W 095°05'  
2017-Dec-03 04:56N 29°47' W 095°04'5 0.5
2017-Dec-02 19:15N 29°44' W 095°08'3 7.0
2017-Dec-02 18:49N 29°45' W 095°12'2 1.2
2017-Dec-02 17:22N 29°44' W 095°13'0 0.0
2017-Dec-02 16:58N 29°44' W 095°13'0 0.0
2017-Dec-02 16:19N 29°44' W 095°13'0 0.0
2017-Dec-02 15:49N 29°44' W 095°13'0 0.0
2017-Dec-02 14:46N 29°44' W 095°13'0 0.0
2017-Dec-02 07:34N 29°44' W 095°13'0 0.0
2017-Dec-02 07:22N 29°44' W 095°13'0 0.0
2017-Dec-02 03:54N 29°44' W 095°13'0 0.3
2017-Dec-02 03:17N 29°44' W 095°13'0 0.3
2017-Dec-02 02:32N 29°44' W 095°13'0 2.8
2017-Dec-02 02:30N 29°43' W 095°13'2 4.3
2017-Dec-02 02:00N 29°45' W 095°11'2 4.8
2017-Dec-02 01:30N 29°44' W 095°09'4 0.2
2017-Dec-01 03:02N 29°46' W 095°05'0 2.9
2017-Dec-01 02:59N 29°46' W 095°05'  
Track history (hours):
 
Tides and Currents Weather Stations Pressure Air Temp Water Temp Dewpoint Dewpoint Depression Visibility Wind Speed Wind Dir Waves Ship Positions

St Joseph

Owner: Marquette Transportation Company Gulf-Inland, LLC, Jefferson, LA. More information available from US FCC via Universal Licensing System and Coast Guard Vessel Documentation Center.

Last reported at 2017-Dec-10 23:02 UTC. Time now 2017-Dec-13 03:24 UTC.
Position N 29°51' W 091°55'.

Length 22 m; draft 2.9 m.

Type: Tug. MMSI: 366998040.

Date/timePositionNaut miles runAvg speedWind from/ knotsBaromVisibWave heightAir tempDewpointWater temp
2017-Dec-10 23:02N 29°51' W 091°55'1 5.8
2017-Dec-10 22:55N 29°51' W 091°55'2 5.6
2017-Dec-10 22:30N 29°50' W 091°58'3 5.9
2017-Dec-10 22:00N 29°49' W 092°01'3 5.8
2017-Dec-10 21:30N 29°48' W 092°04'3 5.9
2017-Dec-10 21:00N 29°47' W 092°07'3 5.8
2017-Dec-10 20:30N 29°47' W 092°11'3 6.2
2017-Dec-10 20:00N 29°48' W 092°14'3 5.9
2017-Dec-10 19:30N 29°49' W 092°17'3 5.3
2017-Dec-10 19:00N 29°50' W 092°20'21 5.7
2017-Dec-10 15:23N 29°57' W 092°42'13 5.7
2017-Dec-10 13:06N 29°56' W 092°57'1 4.8
2017-Dec-10 12:58N 29°56' W 092°58'3 3.8
2017-Dec-10 12:11N 29°56' W 093°01'1 5.2
2017-Dec-10 12:00N 29°56' W 093°02'3 5.3
2017-Dec-10 11:30N 29°56' W 093°06'3 5.5
2017-Dec-10 11:00N 29°56' W 093°09'3 5.2
2017-Dec-10 10:30N 29°58' W 093°11'3 5.8
2017-Dec-10 10:00N 29°60' W 093°13'3 5.1
2017-Dec-10 09:30N 30°02' W 093°15'3 5.1
2017-Dec-10 09:00N 30°04' W 093°16'2 4.9
2017-Dec-10 08:30N 30°06' W 093°18'0 0.0
2017-Dec-10 07:58N 30°06' W 093°18'0 0.1
2017-Dec-10 07:28N 30°06' W 093°18'0 0.0
2017-Dec-10 06:58N 30°06' W 093°18'2 4.8
2017-Dec-10 06:30N 30°05' W 093°20'2 3.7
2017-Dec-10 06:01N 30°04' W 093°22'2 4.1
2017-Dec-10 05:30N 30°04' W 093°24'2 4.5
2017-Dec-10 05:01N 30°04' W 093°27'2 4.5
2017-Dec-10 04:31N 30°04' W 093°30'2 4.6
2017-Dec-10 04:01N 30°04' W 093°32'3 5.0
2017-Dec-10 03:30N 30°04' W 093°35'3 5.6
2017-Dec-10 03:00N 30°04' W 093°38'3 5.3
2017-Dec-10 02:30N 30°04' W 093°41'71 5.3
2017-Dec-09 13:05N 29°24' W 094°49'1 7.7
2017-Dec-09 12:59N 29°24' W 094°49'6 7.4
2017-Dec-09 12:13N 29°30' W 094°52'2 7.2
2017-Dec-09 12:00N 29°31' W 094°53'4 7.5
2017-Dec-09 11:31N 29°34' W 094°55'4 7.3
2017-Dec-09 11:00N 29°37' W 094°57'4 7.5
2017-Dec-09 10:31N 29°41' W 094°59'3 6.6
2017-Dec-09 10:01N 29°43' W 095°01'3 5.9
2017-Dec-09 09:30N 29°45' W 095°04'2 2.4
2017-Dec-09 08:46N 29°45' W 095°06'0 0.9
2017-Dec-09 08:30N 29°46' W 095°06'0 0.4
2017-Dec-09 07:57N 29°45' W 095°06'1 0.0
2017-Dec-08 12:44N 29°46' W 095°05'1 0.1
2017-Dec-08 02:22N 29°46' W 095°06'1 0.3
2017-Dec-07 22:18N 29°46' W 095°05'  
2017-Dec-03 04:56N 29°47' W 095°04'5 0.5
2017-Dec-02 19:15N 29°44' W 095°08'3 7.0
2017-Dec-02 18:49N 29°45' W 095°12'2 1.2
2017-Dec-02 17:22N 29°44' W 095°13'0 0.0
2017-Dec-02 16:58N 29°44' W 095°13'0 0.0
2017-Dec-02 16:19N 29°44' W 095°13'0 0.0
2017-Dec-02 15:49N 29°44' W 095°13'0 0.0
2017-Dec-02 14:46N 29°44' W 095°13'0 0.0
2017-Dec-02 07:34N 29°44' W 095°13'0 0.0
2017-Dec-02 07:22N 29°44' W 095°13'0 0.0
2017-Dec-02 03:54N 29°44' W 095°13'0 0.3
2017-Dec-02 03:17N 29°44' W 095°13'0 0.3
2017-Dec-02 02:32N 29°44' W 095°13'0 2.8
2017-Dec-02 02:30N 29°43' W 095°13'2 4.3
2017-Dec-02 02:00N 29°45' W 095°11'2 4.8
2017-Dec-02 01:30N 29°44' W 095°09'4 0.2
2017-Dec-01 03:02N 29°46' W 095°05'0 2.9
2017-Dec-01 02:59N 29°46' W 095°05'  

Dump ship's entire track history